sensor_id;sensor_type;location;lat;lon;timestamp;pressure;altitude;pressure_sealevel;temperature;humidity
51239;BME280;38154;47.548;18.828;2023-02-19T00:01:45;98792.28;;;9.30;100.00
51239;BME280;38154;47.548;18.828;2023-02-19T00:04:21;98820.91;;;9.33;100.00
51239;BME280;38154;47.548;18.828;2023-02-19T00:06:48;98822.66;;;9.33;100.00
51239;BME280;38154;47.548;18.828;2023-02-19T00:09:16;98817.38;;;9.23;100.00
51239;BME280;38154;47.548;18.828;2023-02-19T00:11:43;98811.25;;;9.20;100.00
51239;BME280;38154;47.548;18.828;2023-02-19T00:14:10;98819.94;;;9.19;100.00
51239;BME280;38154;47.548;18.828;2023-02-19T00:16:39;98801.72;;;9.17;100.00
51239;BME280;38154;47.548;18.828;2023-02-19T00:19:11;98812.03;;;9.08;100.00
51239;BME280;38154;47.548;18.828;2023-02-19T00:21:37;98812.03;;;9.03;100.00
51239;BME280;38154;47.548;18.828;2023-02-19T00:24:05;98819.84;;;9.06;100.00
51239;BME280;38154;47.548;18.828;2023-02-19T00:26:32;98818.16;;;9.10;100.00
51239;BME280;38154;47.548;18.828;2023-02-19T00:28:59;98816.44;;;9.14;100.00
51239;BME280;38154;47.548;18.828;2023-02-19T00:31:30;98821.66;;;9.18;100.00
51239;BME280;38154;47.548;18.828;2023-02-19T00:33:59;98817.25;;;9.09;100.00
51239;BME280;38154;47.548;18.828;2023-02-19T00:36:26;98826.84;;;9.14;100.00
51239;BME280;38154;47.548;18.828;2023-02-19T00:38:53;98821.75;;;9.27;100.00
51239;BME280;38154;47.548;18.828;2023-02-19T00:41:20;98819.97;;;9.25;100.00
51239;BME280;38154;47.548;18.828;2023-02-19T00:46:14;98817.41;;;9.29;100.00
51239;BME280;38154;47.548;18.828;2023-02-19T00:48:40;98815.72;;;9.36;100.00
51239;BME280;38154;47.548;18.828;2023-02-19T00:51:06;98826.16;;;9.41;100.00
51239;BME280;38154;47.548;18.828;2023-02-19T00:53:32;98827.91;;;9.39;100.00
51239;BME280;38154;47.548;18.828;2023-02-19T00:55:58;98818.44;;;9.49;100.00
51239;BME280;38154;47.548;18.828;2023-02-19T00:58:24;98813.25;;;9.55;100.00
51239;BME280;38154;47.548;18.828;2023-02-19T01:00:50;98810.69;;;9.64;100.00
51239;BME280;38154;47.548;18.828;2023-02-19T01:03:15;98806.38;;;9.69;100.00
51239;BME280;38154;47.548;18.828;2023-02-19T01:05:41;98807.25;;;9.71;100.00
51239;BME280;38154;47.548;18.828;2023-02-19T01:08:07;98812.47;;;9.71;100.00
51239;BME280;38154;47.548;18.828;2023-02-19T01:10:33;98808.12;;;9.67;100.00
51239;BME280;38154;47.548;18.828;2023-02-19T01:12:59;98812.47;;;9.73;100.00
51239;BME280;38154;47.548;18.828;2023-02-19T01:15:25;98808.12;;;9.72;100.00
51239;BME280;38154;47.548;18.828;2023-02-19T01:17:51;98802.06;;;9.74;100.00
51239;BME280;38154;47.548;18.828;2023-02-19T01:20:17;98800.31;;;9.75;100.00
51239;BME280;38154;47.548;18.828;2023-02-19T01:22:42;98806.38;;;9.69;100.00
51239;BME280;38154;47.548;18.828;2023-02-19T01:25:09;98813.31;;;9.70;100.00
51239;BME280;38154;47.548;18.828;2023-02-19T01:27:35;98822.81;;;9.63;100.00
51239;BME280;38154;47.548;18.828;2023-02-19T01:30:00;98821.97;;;9.63;100.00
51239;BME280;38154;47.548;18.828;2023-02-19T01:32:26;98834.06;;;9.56;100.00
51239;BME280;38154;47.548;18.828;2023-02-19T01:34:52;98840.97;;;9.50;100.00
51239;BME280;38154;47.548;18.828;2023-02-19T01:37:18;98838.28;;;9.36;100.00
51239;BME280;38154;47.548;18.828;2023-02-19T01:39:44;98846.91;;;9.32;100.00
51239;BME280;38154;47.548;18.828;2023-02-19T01:42:14;98839.12;;;9.30;100.00
51239;BME280;38154;47.548;18.828;2023-02-19T01:47:07;98830.38;;;9.25;100.00
51239;BME280;38154;47.548;18.828;2023-02-19T01:49:51;98828.53;;;9.12;100.00
51239;BME280;38154;47.548;18.828;2023-02-19T01:52:24;98822.38;;;8.97;100.00
51239;BME280;38154;47.548;18.828;2023-02-19T01:54:51;98815.34;;;8.87;100.00
51239;BME280;38154;47.548;18.828;2023-02-19T01:57:20;98819.63;;;8.80;100.00
51239;BME280;38154;47.548;18.828;2023-02-19T01:59:48;98815.44;;;8.98;100.00
51239;BME280;38154;47.548;18.828;2023-02-19T02:02:15;98805.09;;;9.04;100.00
51239;BME280;38154;47.548;18.828;2023-02-19T02:04:42;98799.16;;;9.22;100.00
51239;BME280;38154;47.548;18.828;2023-02-19T02:07:08;98815.69;;;9.30;100.00
51239;BME280;38154;47.548;18.828;2023-02-19T02:09:54;98816.53;;;9.26;100.00
51239;BME280;38154;47.548;18.828;2023-02-19T02:12:40;98808.69;;;9.24;100.00
51239;BME280;38154;47.548;18.828;2023-02-19T02:15:06;98805.22;;;9.22;100.00
51239;BME280;38154;47.548;18.828;2023-02-19T02:23:04;98792.19;;;9.19;100.00
51239;BME280;38154;47.548;18.828;2023-02-19T02:28:35;98787.91;;;9.27;100.00
51239;BME280;38154;47.548;18.828;2023-02-19T02:31:18;98787.97;;;9.34;100.00
51239;BME280;38154;47.548;18.828;2023-02-19T02:33:56;98787.06;;;9.32;100.00
51239;BME280;38154;47.548;18.828;2023-02-19T02:36:28;98796.56;;;9.25;100.00
51239;BME280;38154;47.548;18.828;2023-02-19T02:38:56;98790.44;;;9.20;100.00
51239;BME280;38154;47.548;18.828;2023-02-19T02:41:23;98788.69;;;9.14;100.00
51239;BME280;38154;47.548;18.828;2023-02-19T02:43:49;98795.66;;;9.20;100.00
51239;BME280;38154;47.548;18.828;2023-02-19T02:46:22;98793.06;;;9.17;100.00
51239;BME280;38154;47.548;18.828;2023-02-19T02:49:16;98788.63;;;9.06;100.00
51239;BME280;38154;47.548;18.828;2023-02-19T02:51:49;98795.53;;;9.04;100.00
51239;BME280;38154;47.548;18.828;2023-02-19T02:54:20;98804.94;;;8.85;100.00
51239;BME280;38154;47.548;18.828;2023-02-19T02:57:07;98808.41;;;8.87;100.00
51239;BME280;38154;47.548;18.828;2023-02-19T02:59:37;98806.59;;;8.77;100.00
51239;BME280;38154;47.548;18.828;2023-02-19T03:02:15;98799.66;;;8.78;100.00
51239;BME280;38154;47.548;18.828;2023-02-19T03:04:51;98798.91;;;8.89;100.00
51239;BME280;38154;47.548;18.828;2023-02-19T03:07:53;98792.78;;;8.84;100.00
51239;BME280;38154;47.548;18.828;2023-02-19T03:11:09;98798.00;;;8.86;100.00
51239;BME280;38154;47.548;18.828;2023-02-19T03:13:15;98805.00;;;8.96;100.00
51239;BME280;38154;47.548;18.828;2023-02-19T03:16:26;98808.50;;;9.00;100.00
51239;BME280;38154;47.548;18.828;2023-02-19T03:19:14;98812.81;;;8.95;100.00
51239;BME280;38154;47.548;18.828;2023-02-19T03:21:55;98812.59;;;8.68;100.00
51239;BME280;38154;47.548;18.828;2023-02-19T03:24:24;98823.75;;;8.58;100.00
51239;BME280;38154;47.548;18.828;2023-02-19T03:27:22;98812.56;;;8.65;100.00
51239;BME280;38154;47.548;18.828;2023-02-19T03:29:51;98814.28;;;8.63;100.00
51239;BME280;38154;47.548;18.828;2023-02-19T03:32:24;98811.66;;;8.62;100.00
51239;BME280;38154;47.548;18.828;2023-02-19T03:35:39;98820.28;;;8.59;100.00
51239;BME280;38154;47.548;18.828;2023-02-19T03:40:26;98829.75;;;8.52;100.00
51239;BME280;38154;47.548;18.828;2023-02-19T03:43:04;98823.59;;;8.46;100.00
51239;BME280;38154;47.548;18.828;2023-02-19T03:51:06;98816.69;;;8.48;100.00
51239;BME280;38154;47.548;18.828;2023-02-19T03:53:51;98812.37;;;8.47;100.00
51239;BME280;38154;47.548;18.828;2023-02-19T03:56:25;98815.00;;;8.48;100.00
51239;BME280;38154;47.548;18.828;2023-02-19T04:01:59;98808.97;;;8.54;100.00
51239;BME280;38154;47.548;18.828;2023-02-19T04:04:27;98815.22;;;8.71;100.00
51239;BME280;38154;47.548;18.828;2023-02-19T04:06:57;98820.41;;;8.71;100.00
51239;BME280;38154;47.548;18.828;2023-02-19T04:09:26;98818.66;;;8.69;100.00
51239;BME280;38154;47.548;18.828;2023-02-19T04:11:55;98822.09;;;8.68;100.00
51239;BME280;38154;47.548;18.828;2023-02-19T04:14:38;98809.94;;;8.64;100.00
51239;BME280;38154;47.548;18.828;2023-02-19T04:17:12;98815.19;;;8.68;100.00
51239;BME280;38154;47.548;18.828;2023-02-19T04:19:42;98815.16;;;8.67;100.00
51239;BME280;38154;47.548;18.828;2023-02-19T04:22:09;98813.44;;;8.69;100.00
51239;BME280;38154;47.548;18.828;2023-02-19T04:24:40;98808.19;;;8.64;100.00
51239;BME280;38154;47.548;18.828;2023-02-19T04:27:08;98810.59;;;8.43;100.00
51239;BME280;38154;47.548;18.828;2023-02-19T04:29:34;98825.91;;;8.23;100.00
51239;BME280;38154;47.548;18.828;2023-02-19T04:32:00;98820.63;;;8.13;100.00
51239;BME280;38154;47.548;18.828;2023-02-19T04:34:27;98829.22;;;8.06;100.00
51239;BME280;38154;47.548;18.828;2023-02-19T04:36:52;98820.47;;;7.99;100.00
51239;BME280;38154;47.548;18.828;2023-02-19T04:39:18;98819.53;;;7.93;100.00
51239;BME280;38154;47.548;18.828;2023-02-19T04:41:44;98812.47;;;7.83;100.00
51239;BME280;38154;47.548;18.828;2023-02-19T04:44:10;98824.50;;;7.77;100.00
51239;BME280;38154;47.548;18.828;2023-02-19T04:46:36;98827.09;;;7.77;100.00
51239;BME280;38154;47.548;18.828;2023-02-19T04:49:02;98821.91;;;7.76;100.00
51239;BME280;38154;47.548;18.828;2023-02-19T04:51:28;98821.91;;;7.77;100.00
51239;BME280;38154;47.548;18.828;2023-02-19T04:53:54;98823.66;;;7.78;100.00
51239;BME280;38154;47.548;18.828;2023-02-19T04:56:21;98817.66;;;7.83;100.00
51239;BME280;38154;47.548;18.828;2023-02-19T04:58:46;98810.69;;;7.78;100.00
51239;BME280;38154;47.548;18.828;2023-02-19T05:01:13;98807.25;;;7.81;100.00
51239;BME280;38154;47.548;18.828;2023-02-19T05:03:39;98808.94;;;7.76;100.00
51239;BME280;38154;47.548;18.828;2023-02-19T05:06:08;98798.53;;;7.77;100.00
51239;BME280;38154;47.548;18.828;2023-02-19T05:08:35;98801.19;;;7.80;100.00
51239;BME280;38154;47.548;18.828;2023-02-19T05:11:03;98801.12;;;7.77;100.00
51239;BME280;38154;47.548;18.828;2023-02-19T05:13:29;98797.69;;;7.78;100.00
51239;BME280;38154;47.548;18.828;2023-02-19T05:16:02;98800.31;;;7.80;100.00
51239;BME280;38154;47.548;18.828;2023-02-19T05:18:29;98798.56;;;7.79;100.00
51239;BME280;38154;47.548;18.828;2023-02-19T05:20:56;98803.72;;;7.74;100.00
51239;BME280;38154;47.548;18.828;2023-02-19T05:23:22;98803.75;;;7.76;100.00
51239;BME280;38154;47.548;18.828;2023-02-19T05:25:48;98806.34;;;7.79;100.00
51239;BME280;38154;47.548;18.828;2023-02-19T05:28:14;98803.72;;;7.74;100.00
51239;BME280;38154;47.548;18.828;2023-02-19T05:30:50;98812.28;;;7.70;100.00
51239;BME280;38154;47.548;18.828;2023-02-19T05:33:18;98808.91;;;7.74;100.00
51239;BME280;38154;47.548;18.828;2023-02-19T05:35:49;98802.97;;;7.85;100.00
51239;BME280;38154;47.548;18.828;2023-02-19T05:38:16;98803.78;;;7.82;100.00
51239;BME280;38154;47.548;18.828;2023-02-19T05:40:43;98803.97;;;7.94;100.00
51239;BME280;38154;47.548;18.828;2023-02-19T05:43:10;98803.03;;;7.91;100.00
51239;BME280;38154;47.548;18.828;2023-02-19T05:45:37;98806.47;;;7.87;100.00
51239;BME280;38154;47.548;18.828;2023-02-19T05:48:04;98809.00;;;7.82;100.00
51239;BME280;38154;47.548;18.828;2023-02-19T05:50:32;98808.91;;;7.77;100.00
51239;BME280;38154;47.548;18.828;2023-02-19T05:53:00;98816.66;;;7.73;100.00
51239;BME280;38154;47.548;18.828;2023-02-19T05:55:27;98821.72;;;7.64;100.00
51239;BME280;38154;47.548;18.828;2023-02-19T05:57:53;98820.75;;;7.55;100.00
51239;BME280;38154;47.548;18.828;2023-02-19T06:00:19;98814.59;;;7.49;100.00
51239;BME280;38154;47.548;18.828;2023-02-19T06:02:45;98824.88;;;7.41;100.00
51239;BME280;38154;47.548;18.828;2023-02-19T06:05:12;98816.12;;;7.34;100.00
51239;BME280;38154;47.548;18.828;2023-02-19T06:07:38;98819.50;;;7.30;100.00
51239;BME280;38154;47.548;18.828;2023-02-19T06:10:05;98815.19;;;7.29;100.00
51239;BME280;38154;47.548;18.828;2023-02-19T06:12:31;98824.81;;;7.36;100.00
51239;BME280;38154;47.548;18.828;2023-02-19T06:14:57;98825.63;;;7.35;100.00
51239;BME280;38154;47.548;18.828;2023-02-19T06:17:23;98817.91;;;7.38;100.00
51239;BME280;38154;47.548;18.828;2023-02-19T06:19:49;98810.06;;;7.35;100.00
51239;BME280;38154;47.548;18.828;2023-02-19T06:22:15;98817.94;;;7.40;100.00
51239;BME280;38154;47.548;18.828;2023-02-19T06:24:41;98808.44;;;7.42;100.00
51239;BME280;38154;47.548;18.828;2023-02-19T06:27:09;98798.97;;;7.46;100.00
51239;BME280;38154;47.548;18.828;2023-02-19T06:29:35;98802.47;;;7.46;100.00
51239;BME280;38154;47.548;18.828;2023-02-19T06:32:04;98805.19;;;7.57;100.00
51239;BME280;38154;47.548;18.828;2023-02-19T06:34:30;98803.50;;;7.59;100.00
51239;BME280;38154;47.548;18.828;2023-02-19T06:36:57;98800.12;;;7.65;100.00
51239;BME280;38154;47.548;18.828;2023-02-19T06:39:23;98801.00;;;7.67;100.00
51239;BME280;38154;47.548;18.828;2023-02-19T06:41:49;98792.38;;;7.68;100.00
51239;BME280;38154;47.548;18.828;2023-02-19T06:44:15;98795.84;;;7.68;100.00
51239;BME280;38154;47.548;18.828;2023-02-19T06:46:41;98805.37;;;7.69;100.00
51239;BME280;38154;47.548;18.828;2023-02-19T06:49:07;98814.94;;;7.73;100.00
51239;BME280;38154;47.548;18.828;2023-02-19T06:51:33;98799.41;;;7.76;100.00
51239;BME280;38154;47.548;18.828;2023-02-19T06:54:00;98797.78;;;7.85;100.00
51239;BME280;38154;47.548;18.828;2023-02-19T06:56:30;98796.00;;;7.82;100.00
51239;BME280;38154;47.548;18.828;2023-02-19T06:58:59;98795.31;;;7.95;100.00
51239;BME280;38154;47.548;18.828;2023-02-19T07:01:27;98799.63;;;7.95;100.00
51239;BME280;38154;47.548;18.828;2023-02-19T07:03:53;98797.84;;;7.89;100.00
51239;BME280;38154;47.548;18.828;2023-02-19T07:06:20;98797.84;;;7.88;100.00
51239;BME280;38154;47.548;18.828;2023-02-19T07:08:47;98803.87;;;7.88;100.00
51239;BME280;38154;47.548;18.828;2023-02-19T07:11:12;98800.47;;;7.92;100.00
51239;BME280;38154;47.548;18.828;2023-02-19T07:13:38;98803.97;;;7.94;100.00
51239;BME280;38154;47.548;18.828;2023-02-19T07:16:07;98803.13;;;7.97;100.00
51239;BME280;38154;47.548;18.828;2023-02-19T07:18:34;98803.13;;;7.97;100.00
51239;BME280;38154;47.548;18.828;2023-02-19T07:21:04;98796.34;;;8.08;100.00
51239;BME280;38154;47.548;18.828;2023-02-19T07:23:31;98789.53;;;8.20;100.00
51239;BME280;38154;47.548;18.828;2023-02-19T07:25:57;98785.31;;;8.31;100.00
51239;BME280;38154;47.548;18.828;2023-02-19T07:28:23;98795.81;;;8.40;100.00
51239;BME280;38154;47.548;18.828;2023-02-19T07:30:49;98789.06;;;8.56;100.00
51239;BME280;38154;47.548;18.828;2023-02-19T07:33:15;98797.88;;;8.70;100.00
51239;BME280;38154;47.548;18.828;2023-02-19T07:35:48;98788.38;;;8.74;100.00
51239;BME280;38154;47.548;18.828;2023-02-19T07:38:16;98787.56;;;8.83;100.00
51239;BME280;38154;47.548;18.828;2023-02-19T07:40:49;98786.78;;;8.91;100.00
51239;BME280;38154;47.548;18.828;2023-02-19T07:43:15;98780.78;;;8.99;100.00
51239;BME280;38154;47.548;18.828;2023-02-19T07:45:41;98786.03;;;9.08;100.00
51239;BME280;38154;47.548;18.828;2023-02-19T07:48:07;98790.44;;;9.14;100.00
51239;BME280;38154;47.548;18.828;2023-02-19T07:50:33;98788.72;;;9.17;100.00
51239;BME280;38154;47.548;18.828;2023-02-19T07:52:59;98794.72;;;9.12;100.00
51239;BME280;38154;47.548;18.828;2023-02-19T07:55:25;98805.13;;;9.08;100.00
51239;BME280;38154;47.548;18.828;2023-02-19T07:57:51;98807.72;;;9.05;100.00
51239;BME280;38154;47.548;18.828;2023-02-19T08:00:17;98811.97;;;8.97;100.00
51239;BME280;38154;47.548;18.828;2023-02-19T08:02:45;98813.66;;;8.92;100.00
51239;BME280;38154;47.548;18.828;2023-02-19T08:05:27;98819.69;;;8.89;100.00
51239;BME280;38154;47.548;18.828;2023-02-19T08:07:53;98827.47;;;8.88;100.00
51239;BME280;38154;47.548;18.828;2023-02-19T08:10:19;98822.22;;;8.80;100.00
51239;BME280;38154;47.548;18.828;2023-02-19T08:13:04;98830.94;;;8.85;100.00
51239;BME280;38154;47.548;18.828;2023-02-19T08:15:45;98829.13;;;8.75;100.00
51239;BME280;38154;47.548;18.828;2023-02-19T08:18:12;98829.06;;;8.70;100.00
51239;BME280;38154;47.548;18.828;2023-02-19T08:20:39;98841.25;;;8.78;100.00
51239;BME280;38154;47.548;18.828;2023-02-19T08:23:05;98848.06;;;8.66;100.00
51239;BME280;38154;47.548;18.828;2023-02-19T08:25:32;98845.34;;;8.54;100.00
51239;BME280;38154;47.548;18.828;2023-02-19T08:27:58;98839.19;;;8.46;100.00
51239;BME280;38154;47.548;18.828;2023-02-19T08:30:29;98832.31;;;8.46;100.00
51239;BME280;38154;47.548;18.828;2023-02-19T08:32:57;98841.84;;;8.50;100.00
51239;BME280;38154;47.548;18.828;2023-02-19T08:35:23;98840.09;;;8.49;100.00
51239;BME280;38154;47.548;18.828;2023-02-19T08:37:49;98827.09;;;8.45;100.00
51239;BME280;38154;47.548;18.828;2023-02-19T08:40:15;98822.66;;;8.41;100.00
51239;BME280;38154;47.548;18.828;2023-02-19T08:42:42;98823.53;;;8.40;100.00
51239;BME280;38154;47.548;18.828;2023-02-19T08:45:08;98821.81;;;8.42;100.00
51239;BME280;38154;47.548;18.828;2023-02-19T08:47:34;98821.75;;;8.37;100.00
51239;BME280;38154;47.548;18.828;2023-02-19T08:50:01;98823.47;;;8.35;100.00
51239;BME280;38154;47.548;18.828;2023-02-19T08:52:27;98826.06;;;8.35;100.00
51239;BME280;38154;47.548;18.828;2023-02-19T08:54:53;98821.75;;;8.35;100.00
51239;BME280;38154;47.548;18.828;2023-02-19T08:57:18;98825.25;;;8.41;100.00
51239;BME280;38154;47.548;18.828;2023-02-19T08:59:44;98830.56;;;8.47;100.00
51239;BME280;38154;47.548;18.828;2023-02-19T09:02:10;98828.81;;;8.46;100.00
51239;BME280;38154;47.548;18.828;2023-02-19T09:04:37;98826.16;;;8.43;100.00
51239;BME280;38154;47.548;18.828;2023-02-19T09:07:04;98830.44;;;8.39;100.00
51239;BME280;38154;47.548;18.828;2023-02-19T09:09:32;98817.44;;;8.39;100.00
51239;BME280;38154;47.548;18.828;2023-02-19T09:11:58;98832.06;;;8.31;100.00
51239;BME280;38154;47.548;18.828;2023-02-19T09:14:24;98823.44;;;8.32;100.00
51239;BME280;38154;47.548;18.828;2023-02-19T09:16:50;98824.25;;;8.29;100.00
51239;BME280;38154;47.548;18.828;2023-02-19T09:19:16;98822.56;;;8.30;100.00
51239;BME280;38154;47.548;18.828;2023-02-19T09:21:42;98819.94;;;8.28;100.00
51239;BME280;38154;47.548;18.828;2023-02-19T09:24:08;98827.72;;;8.28;100.00
51239;BME280;38154;47.548;18.828;2023-02-19T09:26:34;98817.38;;;8.31;100.00
51239;BME280;38154;47.548;18.828;2023-02-19T09:29:00;98819.91;;;8.27;100.00
51239;BME280;38154;47.548;18.828;2023-02-19T09:31:26;98817.38;;;8.30;100.00
51239;BME280;38154;47.548;18.828;2023-02-19T09:33:52;98820.84;;;8.32;100.00
51239;BME280;38154;47.548;18.828;2023-02-19T09:36:18;98817.41;;;8.36;100.00
51239;BME280;38154;47.548;18.828;2023-02-19T09:38:44;98817.47;;;8.42;100.00
51239;BME280;38154;47.548;18.828;2023-02-19T09:41:30;98812.41;;;8.48;100.00
51239;BME280;38154;47.548;18.828;2023-02-19T09:43:58;98808.22;;;8.67;100.00
51239;BME280;38154;47.548;18.828;2023-02-19T09:46:34;98810.13;;;8.85;100.00
51239;BME280;38154;47.548;18.828;2023-02-19T09:49:14;98810.19;;;8.95;100.00
51239;BME280;38154;47.548;18.828;2023-02-19T09:51:46;98805.94;;;9.03;100.00
51239;BME280;38154;47.548;18.828;2023-02-19T09:54:23;98805.13;;;9.08;100.00
51239;BME280;38154;47.548;18.828;2023-02-19T09:56:50;98805.19;;;9.19;100.00
51239;BME280;38154;47.548;18.828;2023-02-19T09:59:20;98805.37;;;9.45;100.00
51239;BME280;38154;47.548;18.828;2023-02-19T10:01:53;98801.22;;;9.74;100.00
51239;BME280;38154;47.548;18.828;2023-02-19T10:04:21;98809.12;;;9.94;100.00
51239;BME280;38154;47.548;18.828;2023-02-19T10:06:47;98799.59;;;10.08;100.00
51239;BME280;38154;47.548;18.828;2023-02-19T10:09:23;98792.66;;;10.12;100.00
51239;BME280;38154;47.548;18.828;2023-02-19T10:11:53;98790.97;;;10.23;100.00
51239;BME280;38154;47.548;18.828;2023-02-19T10:14:34;98796.22;;;10.31;100.00
51239;BME280;38154;47.548;18.828;2023-02-19T10:17:03;98784.97;;;10.50;100.00
51239;BME280;38154;47.548;18.828;2023-02-19T10:19:31;98777.19;;;10.63;100.00
51239;BME280;38154;47.548;18.828;2023-02-19T10:21:58;98786.78;;;10.76;100.00
51239;BME280;38154;47.548;18.828;2023-02-19T10:24:28;98780.66;;;10.77;100.00
51239;BME280;38154;47.548;18.828;2023-02-19T10:26:55;98779.81;;;10.84;100.00
51239;BME280;38154;47.548;18.828;2023-02-19T10:29:21;98783.28;;;10.94;100.00
51239;BME280;38154;47.548;18.828;2023-02-19T10:34:37;98766.72;;;11.30;100.00
51239;BME280;38154;47.548;18.828;2023-02-19T10:37:10;98755.41;;;11.24;100.00
51239;BME280;38154;47.548;18.828;2023-02-19T10:39:41;98766.75;;;11.10;100.00
51239;BME280;38154;47.548;18.828;2023-02-19T10:42:21;98763.25;;;11.28;100.00
51239;BME280;38154;47.548;18.828;2023-02-19T10:44:54;98749.28;;;11.43;100.00
51239;BME280;38154;47.548;18.828;2023-02-19T10:47:25;98757.06;;;11.62;100.00
51239;BME280;38154;47.548;18.828;2023-02-19T10:49:55;98743.56;;;12.54;100.00
51239;BME280;38154;47.548;18.828;2023-02-19T10:52:27;98741.88;;;12.49;100.00
51239;BME280;38154;47.548;18.828;2023-02-19T10:55:24;98754.16;;;12.31;100.00
51239;BME280;38154;47.548;18.828;2023-02-19T10:57:50;98752.34;;;12.42;100.00
51239;BME280;38154;47.548;18.828;2023-02-19T11:00:25;98740.25;;;12.29;100.00
51239;BME280;38154;47.548;18.828;2023-02-19T11:03:27;98735.03;;;12.23;100.00
51239;BME280;38154;47.548;18.828;2023-02-19T11:06:01;98730.75;;;12.08;100.00
51239;BME280;38154;47.548;18.828;2023-02-19T11:08:28;98730.75;;;12.11;100.00
51239;BME280;38154;47.548;18.828;2023-02-19T11:10:55;98733.34;;;12.19;100.00
51239;BME280;38154;47.548;18.828;2023-02-19T11:13:32;98729.91;;;12.06;100.00
51239;BME280;38154;47.548;18.828;2023-02-19T11:16:02;98738.59;;;12.13;100.00
51239;BME280;38154;47.548;18.828;2023-02-19T11:18:31;98732.50;;;12.15;100.00
51239;BME280;38154;47.548;18.828;2023-02-19T11:21:03;98728.87;;;12.33;100.00
51239;BME280;38154;47.548;18.828;2023-02-19T11:23:33;98717.53;;;12.34;100.00
51239;BME280;38154;47.548;18.828;2023-02-19T11:26:02;98721.19;;;12.10;100.00
51239;BME280;38154;47.548;18.828;2023-02-19T11:28:39;98715.72;;;12.47;100.00
51239;BME280;38154;47.548;18.828;2023-02-19T11:31:20;98713.13;;;14.13;96.51
51239;BME280;38154;47.548;18.828;2023-02-19T11:36:40;98703.88;;;16.68;77.33
51239;BME280;38154;47.548;18.828;2023-02-19T11:42:06;98704.47;;;18.09;68.22
51239;BME280;38154;47.548;18.828;2023-02-19T11:44:59;98707.75;;;17.88;68.48
51239;BME280;38154;47.548;18.828;2023-02-19T12:03:52;98680.84;;;17.75;68.98
51239;BME280;38154;47.548;18.828;2023-02-19T12:09:37;98679.47;;;17.30;68.33
51239;BME280;38154;47.548;18.828;2023-02-19T12:20:42;98665.84;;;15.22;77.00
51239;BME280;38154;47.548;18.828;2023-02-19T12:34:24;98658.31;;;14.51;84.04
51239;BME280;38154;47.548;18.828;2023-02-19T12:42:52;98641.19;;;13.67;87.83
51239;BME280;38154;47.548;18.828;2023-02-19T12:45:36;98642.72;;;13.84;88.18
51239;BME280;38154;47.548;18.828;2023-02-19T12:50:52;98635.84;;;14.34;83.99
51239;BME280;38154;47.548;18.828;2023-02-19T12:56:16;98650.84;;;13.64;84.00
51239;BME280;38154;47.548;18.828;2023-02-19T12:58:56;98651.53;;;13.04;88.91
51239;BME280;38154;47.548;18.828;2023-02-19T13:01:32;98644.91;;;12.70;90.48
51239;BME280;38154;47.548;18.828;2023-02-19T13:04:31;98641.56;;;12.54;93.22
51239;BME280;38154;47.548;18.828;2023-02-19T13:07:12;98628.59;;;12.43;97.45
51239;BME280;38154;47.548;18.828;2023-02-19T13:09:51;98624.19;;;12.47;96.98
51239;BME280;38154;47.548;18.828;2023-02-19T13:12:28;98618.75;;;12.69;96.68
51239;BME280;38154;47.548;18.828;2023-02-19T13:14:59;98604.50;;;12.97;91.46
51239;BME280;38154;47.548;18.828;2023-02-19T13:17:37;98607.81;;;13.10;88.21
51239;BME280;38154;47.548;18.828;2023-02-19T13:20:28;98601.84;;;13.02;88.67
51239;BME280;38154;47.548;18.828;2023-02-19T13:36:59;98578.47;;;12.84;90.09
51239;BME280;38154;47.548;18.828;2023-02-19T13:39:26;98585.56;;;12.74;90.69
51239;BME280;38154;47.548;18.828;2023-02-19T13:41:55;98590.84;;;12.71;92.05
51239;BME280;38154;47.548;18.828;2023-02-19T13:44:27;98591.72;;;12.68;92.60
51239;BME280;38154;47.548;18.828;2023-02-19T13:46:53;98598.66;;;12.72;93.41
51239;BME280;38154;47.548;18.828;2023-02-19T13:49:23;98612.72;;;12.60;94.38
51239;BME280;38154;47.548;18.828;2023-02-19T13:52:00;98625.19;;;12.31;96.10
51239;BME280;38154;47.548;18.828;2023-02-19T13:54:30;98640.31;;;11.78;100.00
51239;BME280;38154;47.548;18.828;2023-02-19T13:59:48;98665.94;;;10.58;100.00
51239;BME280;38154;47.548;18.828;2023-02-19T14:19:56;98687.38;;;9.46;100.00
51239;BME280;38154;47.548;18.828;2023-02-19T14:30:27;98726.56;;;9.77;100.00
51239;BME280;38154;47.548;18.828;2023-02-19T14:32:54;98719.59;;;9.73;100.00
51239;BME280;38154;47.548;18.828;2023-02-19T14:35:24;98725.69;;;9.71;100.00
51239;BME280;38154;47.548;18.828;2023-02-19T14:37:51;98730.03;;;9.69;100.00
51239;BME280;38154;47.548;18.828;2023-02-19T14:40:27;98729.16;;;9.74;100.00
51239;BME280;38154;47.548;18.828;2023-02-19T14:42:54;98718.72;;;9.68;100.00
51239;BME280;38154;47.548;18.828;2023-02-19T14:45:22;98711.75;;;9.61;100.00
51239;BME280;38154;47.548;18.828;2023-02-19T14:47:50;98714.38;;;9.70;100.00
51239;BME280;38154;47.548;18.828;2023-02-19T14:50:26;98714.41;;;9.69;100.00
51239;BME280;38154;47.548;18.828;2023-02-19T14:52:56;98713.50;;;9.70;100.00
51239;BME280;38154;47.548;18.828;2023-02-19T14:55:29;98704.84;;;9.69;100.00
51239;BME280;38154;47.548;18.828;2023-02-19T14:58:23;98697.00;;;9.61;100.00
51239;BME280;38154;47.548;18.828;2023-02-19T15:00:50;98699.59;;;9.63;100.00
51239;BME280;38154;47.548;18.828;2023-02-19T15:03:25;98710.78;;;9.39;100.00
51239;BME280;38154;47.548;18.828;2023-02-19T15:05:57;98715.94;;;9.31;100.00
51239;BME280;38154;47.548;18.828;2023-02-19T15:08:30;98734.16;;;9.31;100.00
51239;BME280;38154;47.548;18.828;2023-02-19T15:10:57;98728.03;;;9.21;100.00